KIJX

Jacksonville Municipal Airport

Jacksonville, Illinois, USA
METAR KIJX 230255Z AUTO 10003KT 10SM CLR 20/16 A3006 RMK AO2 T02020162
Observed Flight Rules
May-23 @ 02:55 UTC (24 minutes ago) Visual Flight Rules
Wind Visibility Clouds
100° at 3 knots 10 miles
  • Clear skies
Temperatures Readings
Current 20°C / 68°F
Dewpoint 16°C / 61°F
Humidity 78%
Altimeter 30.06" Hg
Pressure 1018 hPa
Elevation 190
METAR KIJX 230255Z AUTO 10003KT 10SM CLR 20/16 A3006 RMK AO2 T02020162
Observed Flight Rules
May-23 @ 02:55 UTC
(24 minutes ago)
VFR
Wind Visibility
100° at 3 knots 10 miles
Clouds
  • Clear skies
Temperature Dewpoint
20°C / 68°F 16°C / 61°F
Humidity Altimeter Pressure
78% 30.06" Hg 1018 hPa